Time;durP1;ratioP1;P1;durP2;ratioP2;P2;SDS_P1;SDS_P2;PMS_P1;PMS_P2;Temp;Humidity;BMP_temperature;BMP_pressure;BME280_temperature;BME280_humidity;BME280_pressure;Samples;Min_cycle;Max_cycle;Signal;HPM_P1;HPM_P2
2021/03/20 00:01:11;;;;;;;9.33;6.77;;;3.30;99.90;;;;;;5068819;28;20201;-82
2021/03/20 00:03:39;;;;;;;8.30;6.53;;;3.30;99.90;;;;;;5067452;28;20226;-83
2021/03/20 00:06:06;;;;;;;11.00;7.10;;;3.20;99.90;;;;;;5050173;28;20735;-83
2021/03/20 00:08:33;;;;;;;11.33;6.87;;;3.20;99.90;;;;;;5047240;28;20202;-83
2021/03/20 00:10:59;;;;;;;9.03;7.43;;;3.20;99.90;;;;;;5047806;28;20205;-81
2021/03/20 00:13:26;;;;;;;8.13;7.13;;;3.20;99.90;;;;;;5048311;28;20220;-83
2021/03/20 00:15:53;;;;;;;9.97;7.30;;;3.10;99.90;;;;;;5049106;28;20237;-82
2021/03/20 00:18:21;;;;;;;12.43;7.80;;;3.10;99.90;;;;;;5048728;28;20198;-83
2021/03/20 00:20:52;;;;;;;10.90;7.57;;;3.00;99.90;;;;;;5048442;28;20209;-83
2021/03/20 00:23:18;;;;;;;9.73;7.17;;;3.00;99.90;;;;;;5048457;28;20705;-81
2021/03/20 00:25:45;;;;;;;10.40;7.70;;;3.00;99.90;;;;;;5048594;28;20513;-81
2021/03/20 00:28:14;;;;;;;10.87;7.93;;;3.00;99.90;;;;;;5048598;28;20206;-81
2021/03/20 00:30:41;;;;;;;8.10;7.17;;;3.00;99.90;;;;;;5051543;28;20209;-80
2021/03/20 00:33:07;;;;;;;9.23;7.50;;;2.90;99.90;;;;;;5068034;28;20224;-81
2021/03/20 00:35:34;;;;;;;10.23;8.60;;;2.90;99.90;;;;;;5066860;28;20205;-81
2021/03/20 00:38:01;;;;;;;11.20;7.23;;;2.90;99.90;;;;;;5063396;28;20205;-79
2021/03/20 00:40:30;;;;;;;9.10;7.40;;;2.90;99.90;;;;;;5047874;28;20221;-79
2021/03/20 00:42:57;;;;;;;10.63;8.27;;;2.80;99.90;;;;;;5043984;28;20222;-79
2021/03/20 00:45:26;;;;;;;13.87;9.73;;;2.80;99.90;;;;;;5048175;28;20254;-80
2021/03/20 00:47:53;;;;;;;11.83;7.60;;;2.80;99.90;;;;;;5064343;28;20205;-80
2021/03/20 00:50:22;;;;;;;10.00;7.20;;;2.80;99.90;;;;;;5064016;28;20211;-79
2021/03/20 00:52:49;;;;;;;9.60;6.93;;;2.80;99.90;;;;;;5044002;28;20202;-78
2021/03/20 00:55:17;;;;;;;11.77;7.17;;;2.80;99.90;;;;;;5044669;28;20198;-80
2021/03/20 00:57:43;;;;;;;8.77;6.77;;;2.80;99.90;;;;;;5044387;28;20217;-79
2021/03/20 01:00:12;;;;;;;7.77;6.30;;;2.90;99.90;;;;;;5059514;28;20224;-80
2021/03/20 01:02:39;;;;;;;10.10;7.70;;;2.80;99.90;;;;;;5063393;28;20664;-79
2021/03/20 01:05:07;;;;;;;8.00;6.63;;;2.80;99.90;;;;;;5064580;28;20259;-79
2021/03/20 01:07:34;;;;;;;9.83;7.30;;;2.80;99.90;;;;;;5055969;28;20216;-79
2021/03/20 01:10:00;;;;;;;9.20;7.07;;;2.70;99.90;;;;;;5044171;28;20207;-79
2021/03/20 01:12:27;;;;;;;8.53;7.53;;;2.70;99.90;;;;;;5042893;28;20222;-79
2021/03/20 01:14:54;;;;;;;8.50;6.93;;;2.70;99.90;;;;;;5042507;28;20260;-80
2021/03/20 01:17:20;;;;;;;8.30;7.43;;;2.70;99.90;;;;;;5042156;28;20664;-80
2021/03/20 01:19:46;;;;;;;10.67;7.70;;;2.60;99.90;;;;;;5053053;28;20219;-78
2021/03/20 01:22:13;;;;;;;9.57;6.37;;;2.60;99.90;;;;;;5061960;28;20654;-79
2021/03/20 01:24:39;;;;;;;7.53;6.47;;;2.50;99.90;;;;;;5062259;28;20801;-81
2021/03/20 01:27:06;;;;;;;8.67;6.60;;;2.50;99.90;;;;;;5062576;28;20345;-80
2021/03/20 01:29:33;;;;;;;8.73;6.27;;;2.40;99.90;;;;;;5043169;28;20212;-79
2021/03/20 01:31:59;;;;;;;9.83;7.30;;;2.40;99.90;;;;;;5042016;28;20814;-79
2021/03/20 01:34:25;;;;;;;8.60;6.97;;;2.40;99.90;;;;;;5042390;28;20669;-80
2021/03/20 01:36:51;;;;;;;11.10;7.57;;;2.40;99.90;;;;;;5041362;28;20507;-79
2021/03/20 01:39:18;;;;;;;8.33;6.33;;;2.40;99.90;;;;;;5042133;28;20910;-79
2021/03/20 01:41:44;;;;;;;10.43;6.90;;;2.40;99.90;;;;;;5043127;28;20419;-80
2021/03/20 01:44:17;;;;;;;6.93;5.73;;;2.30;99.90;;;;;;5041964;28;20222;-79
2021/03/20 01:46:49;;;;;;;7.87;6.50;;;2.30;99.90;;;;;;5044646;28;20214;-79
2021/03/20 01:49:24;;;;;;;9.03;6.57;;;2.30;99.90;;;;;;5042538;28;20201;-80
2021/03/20 01:51:58;;;;;;;8.13;6.40;;;2.30;99.90;;;;;;5042783;28;20287;-80
2021/03/20 01:54:30;;;;;;;9.97;6.57;;;2.20;99.90;;;;;;5041828;28;20633;-78
2021/03/20 01:56:56;;;;;;;10.20;6.93;;;2.20;99.90;;;;;;5043405;28;20209;-79
2021/03/20 01:59:22;;;;;;;9.77;7.30;;;2.20;99.90;;;;;;5041966;28;20205;-80
2021/03/20 02:01:50;;;;;;;9.57;6.87;;;2.20;99.90;;;;;;5042159;28;20218;-81
2021/03/20 02:04:16;;;;;;;8.63;6.70;;;2.10;99.90;;;;;;5042713;28;20225;-83
2021/03/20 02:06:42;;;;;;;7.93;6.30;;;2.10;99.90;;;;;;5042411;28;20208;-81
2021/03/20 02:09:10;;;;;;;10.87;7.03;;;2.00;99.90;;;;;;5041627;28;20610;-78
2021/03/20 02:11:44;;;;;;;9.77;6.13;;;2.00;99.90;;;;;;5041396;28;20237;-79
2021/03/20 02:14:25;;;;;;;8.47;6.40;;;2.00;99.90;;;;;;5041407;28;20198;-80
2021/03/20 02:16:59;;;;;;;11.90;7.30;;;2.00;99.90;;;;;;5041369;28;20204;-80
2021/03/20 02:19:49;;;;;;;9.70;6.67;;;2.00;99.90;;;;;;5041094;28;20182;-79
2021/03/20 02:22:20;;;;;;;8.93;6.77;;;1.90;99.90;;;;;;5042847;28;20286;-79
2021/03/20 02:25:17;;;;;;;7.40;6.70;;;1.90;99.90;;;;;;5041210;28;20202;-79
2021/03/20 02:28:22;;;;;;;7.67;6.20;;;1.90;99.90;;;;;;5042302;28;20884;-82
2021/03/20 02:31:16;;;;;;;7.83;7.03;;;1.90;99.90;;;;;;5042533;28;20205;-79
2021/03/20 02:33:53;;;;;;;10.63;6.83;;;1.90;99.90;;;;;;5044761;28;20201;-79
2021/03/20 02:36:28;;;;;;;8.33;6.93;;;1.90;99.90;;;;;;5044867;28;20210;-80
2021/03/20 02:39:01;;;;;;;8.40;6.83;;;1.80;99.90;;;;;;5045761;28;20652;-79
2021/03/20 02:41:32;;;;;;;11.90;7.57;;;1.90;99.90;;;;;;5045156;28;20202;-79
2021/03/20 02:44:06;;;;;;;10.17;7.87;;;1.90;99.90;;;;;;5045498;28;20222;-79
2021/03/20 02:46:37;;;;;;;9.87;8.10;;;1.90;99.90;;;;;;5045636;28;20205;-77
2021/03/20 02:49:13;;;;;;;9.60;7.27;;;1.90;99.90;;;;;;5061644;28;20838;-78
2021/03/20 02:51:45;;;;;;;10.97;7.87;;;1.90;99.90;;;;;;5064400;28;20204;-81
2021/03/20 02:54:16;;;;;;;9.93;8.27;;;1.90;99.90;;;;;;5065094;28;20205;-78
2021/03/20 02:56:48;;;;;;;10.70;8.00;;;1.80;99.90;;;;;;5048811;28;20198;-79
2021/03/20 02:59:15;;;;;;;10.87;8.37;;;1.80;99.90;;;;;;5045398;28;20198;-79
2021/03/20 03:01:46;;;;;;;10.90;8.37;;;1.90;99.90;;;;;;5045786;28;20201;-79
2021/03/20 03:04:17;;;;;;;11.00;8.13;;;1.90;99.90;;;;;;5052226;28;20944;-77
2021/03/20 03:06:48;;;;;;;10.70;7.20;;;1.80;99.90;;;;;;5064210;28;20214;-77
2021/03/20 03:09:19;;;;;;;9.03;7.27;;;1.80;99.90;;;;;;5057387;28;20209;-81
2021/03/20 03:11:51;;;;;;;10.23;7.20;;;1.80;99.90;;;;;;5045257;28;20467;-78
2021/03/20 03:14:23;;;;;;;8.33;6.80;;;1.80;99.90;;;;;;5044192;28;20695;-77
2021/03/20 03:16:53;;;;;;;7.97;6.90;;;1.80;99.90;;;;;;5045066;28;20198;-77
2021/03/20 03:19:26;;;;;;;7.73;6.43;;;1.70;99.90;;;;;;5045370;28;20206;-81
2021/03/20 03:21:56;;;;;;;8.20;6.80;;;1.70;99.90;;;;;;5044076;28;20194;-78
2021/03/20 03:24:44;;;;;;;9.07;7.30;;;1.70;99.90;;;;;;5045066;28;20221;-77
2021/03/20 03:27:14;;;;;;;8.37;6.40;;;1.60;99.90;;;;;;5045593;28;20206;-82
2021/03/20 03:29:41;;;;;;;7.03;6.33;;;1.60;99.90;;;;;;5045640;28;20515;-79
2021/03/20 03:32:15;;;;;;;7.20;5.97;;;1.60;99.90;;;;;;5057094;28;20672;-78
2021/03/20 03:34:50;;;;;;;7.40;6.57;;;1.50;99.90;;;;;;5058806;28;20197;-78
2021/03/20 03:37:21;;;;;;;6.83;6.13;;;1.50;99.90;;;;;;5045726;28;20205;-82
2021/03/20 03:39:52;;;;;;;6.53;5.93;;;1.50;99.90;;;;;;5043643;28;20201;-78
2021/03/20 03:42:20;;;;;;;7.83;6.40;;;1.50;99.90;;;;;;5042748;28;20214;-78
2021/03/20 03:44:51;;;;;;;8.80;6.20;;;1.40;99.90;;;;;;5043738;28;20202;-78
2021/03/20 03:47:21;;;;;;;7.63;6.33;;;1.40;99.90;;;;;;5044656;28;20287;-80
2021/03/20 03:49:48;;;;;;;8.93;6.70;;;1.40;99.90;;;;;;5043190;28;20233;-79
2021/03/20 03:52:16;;;;;;;7.33;6.17;;;1.40;99.90;;;;;;5062721;28;20209;-80
2021/03/20 03:54:43;;;;;;;7.60;6.53;;;1.30;99.90;;;;;;5059943;28;20202;-79
2021/03/20 03:57:37;;;;;;;7.37;6.27;;;1.30;99.90;;;;;;5041746;28;20208;-79
2021/03/20 04:00:13;;;;;;;9.23;7.17;;;1.20;99.90;;;;;;5043954;28;20210;-78
2021/03/20 04:02:52;;;;;;;9.00;7.00;;;1.20;99.90;;;;;;5042919;28;20222;-78
2021/03/20 04:05:26;;;;;;;7.53;6.57;;;1.20;99.90;;;;;;5044023;28;20230;-77
2021/03/20 04:08:02;;;;;;;8.90;7.00;;;1.20;99.90;;;;;;5044048;28;20194;-79
2021/03/20 04:10:34;;;;;;;9.03;6.73;;;1.20;99.90;;;;;;5043163;28;20193;-77
2021/03/20 04:13:11;;;;;;;9.80;7.40;;;1.10;99.90;;;;;;5043362;28;20312;-77
2021/03/20 04:15:53;;;;;;;7.60;6.77;;;1.10;99.90;;;;;;5043311;28;20226;-76
2021/03/20 04:18:28;;;;;;;7.77;6.53;;;1.10;99.90;;;;;;5045614;28;20216;-76
2021/03/20 04:21:04;;;;;;;7.97;5.87;;;1.10;99.90;;;;;;5063817;28;20233;-77
2021/03/20 04:23:34;;;;;;;9.23;6.00;;;1.10;99.90;;;;;;5062598;28;20989;-76
2021/03/20 04:26:08;;;;;;;7.90;6.73;;;1.10;99.90;;;;;;5055883;28;20198;-77
2021/03/20 04:28:45;;;;;;;8.67;6.77;;;1.00;99.90;;;;;;5043363;28;20205;-77
2021/03/20 04:31:18;;;;;;;7.27;6.40;;;1.00;99.90;;;;;;5042558;28;20239;-77
2021/03/20 04:33:49;;;;;;;10.53;7.87;;;1.00;99.90;;;;;;5043274;28;20214;-77
2021/03/20 04:36:19;;;;;;;12.07;9.27;;;1.00;99.90;;;;;;5045115;28;20206;-77
2021/03/20 04:38:47;;;;;;;12.10;9.07;;;1.00;99.90;;;;;;5061888;28;20258;-77
2021/03/20 04:41:15;;;;;;;11.10;8.73;;;1.00;99.90;;;;;;5062722;28;20259;-77
2021/03/20 04:43:41;;;;;;;9.83;8.00;;;1.00;99.90;;;;;;5053658;28;20234;-77
2021/03/20 04:46:15;;;;;;;9.90;7.57;;;1.00;99.90;;;;;;5043381;28;20519;-77
2021/03/20 04:48:45;;;;;;;12.90;8.67;;;1.00;99.90;;;;;;5042082;28;20206;-77
2021/03/20 04:51:29;;;;;;;11.90;9.37;;;1.00;99.90;;;;;;5059280;28;20209;-79
2021/03/20 04:54:08;;;;;;;12.30;9.33;;;1.00;99.90;;;;;;5063050;28;20204;-77
2021/03/20 04:56:42;;;;;;;12.33;9.13;;;1.00;99.90;;;;;;5062996;28;20201;-77
2021/03/20 04:59:17;;;;;;;12.33;9.40;;;1.00;99.90;;;;;;5047229;28;20228;-77
2021/03/20 05:01:48;;;;;;;10.87;8.07;;;1.10;99.90;;;;;;5043394;28;20212;-79
2021/03/20 05:04:20;;;;;;;11.40;8.73;;;1.00;99.90;;;;;;5042408;28;20229;-78
2021/03/20 05:06:49;;;;;;;11.80;8.47;;;1.10;99.90;;;;;;5042342;28;20275;-79
2021/03/20 05:09:21;;;;;;;9.30;7.70;;;1.10;99.90;;;;;;5042453;28;20297;-78
2021/03/20 05:11:54;;;;;;;11.83;9.80;;;1.10;99.90;;;;;;5042693;28;20955;-77
2021/03/20 05:14:27;;;;;;;10.90;8.33;;;1.00;99.90;;;;;;5054801;28;20233;-77
2021/03/20 05:16:57;;;;;;;9.77;8.20;;;1.00;99.90;;;;;;5060722;28;20212;-78
2021/03/20 05:19:25;;;;;;;10.07;7.43;;;1.10;99.90;;;;;;5063530;28;20209;-79
2021/03/20 05:21:55;;;;;;;8.87;7.23;;;1.00;99.90;;;;;;5062882;28;20189;-78
2021/03/20 05:24:25;;;;;;;9.90;8.13;;;1.10;99.90;;;;;;5062504;28;20335;-79
2021/03/20 05:26:53;;;;;;;9.37;7.43;;;1.00;99.90;;;;;;5063506;28;20559;-79
2021/03/20 05:29:19;;;;;;;10.20;7.03;;;1.00;99.90;;;;;;5063278;28;20205;-80
2021/03/20 05:31:46;;;;;;;10.53;8.03;;;1.00;99.90;;;;;;5050151;28;20206;-77
2021/03/20 05:34:19;;;;;;;9.17;7.70;;;1.00;99.90;;;;;;5042434;28;20212;-78
2021/03/20 05:36:46;;;;;;;9.20;7.70;;;1.00;99.90;;;;;;5043240;28;20388;-79
2021/03/20 05:39:14;;;;;;;9.97;7.47;;;1.00;99.90;;;;;;5043450;28;20606;-79
2021/03/20 05:41:55;;;;;;;9.63;7.00;;;1.00;99.90;;;;;;5042847;28;20279;-80
2021/03/20 05:44:43;;;;;;;8.87;7.77;;;1.00;99.90;;;;;;5041938;28;20320;-78
2021/03/20 05:47:25;;;;;;;11.27;8.43;;;1.00;99.90;;;;;;5042348;28;20497;-78
2021/03/20 05:50:02;;;;;;;12.03;8.40;;;0.90;99.90;;;;;;5043081;28;20210;-80
2021/03/20 05:52:45;;;;;;;10.33;7.73;;;0.90;99.90;;;;;;5042529;28;20921;-79
2021/03/20 05:55:32;;;;;;;8.73;7.37;;;0.90;99.90;;;;;;5041752;28;20650;-77
2021/03/20 05:58:14;;;;;;;10.53;8.10;;;0.90;99.90;;;;;;5044510;28;20194;-79
2021/03/20 06:00:47;;;;;;;9.47;8.03;;;0.90;99.90;;;;;;5043584;28;20641;-81
2021/03/20 06:03:36;;;;;;;10.43;8.73;;;0.80;99.90;;;;;;5041678;28;20229;-79
2021/03/20 06:06:17;;;;;;;12.07;8.70;;;0.80;99.90;;;;;;5044271;28;20198;-79
2021/03/20 06:08:53;;;;;;;11.50;8.77;;;0.90;99.90;;;;;;5053126;28;20201;-78
2021/03/20 06:11:38;;;;;;;11.67;8.87;;;0.90;99.90;;;;;;5066644;28;20772;-77
2021/03/20 06:14:19;;;;;;;8.93;7.43;;;0.90;99.90;;;;;;5068749;28;20181;-79
2021/03/20 06:17:00;;;;;;;9.37;8.23;;;0.90;99.90;;;;;;5052021;28;20224;-78
2021/03/20 06:19:59;;;;;;;13.17;8.83;;;0.90;99.90;;;;;;5046445;28;20194;-78
2021/03/20 06:23:06;;;;;;;13.33;8.93;;;0.90;99.90;;;;;;5032920;28;20213;-79
2021/03/20 06:26:11;;;;;;;12.53;9.70;;;0.90;99.90;;;;;;4983519;28;20207;-80
2021/03/20 06:28:42;;;;;;;11.90;9.77;;;0.90;99.90;;;;;;5051681;28;20209;-78
2021/03/20 06:31:17;;;;;;;11.43;9.10;;;0.90;99.90;;;;;;5047448;28;20551;-81
2021/03/20 06:33:51;;;;;;;11.10;9.20;;;1.00;99.90;;;;;;5048446;28;20276;-77
2021/03/20 06:36:22;;;;;;;12.13;9.43;;;1.00;99.90;;;;;;5064407;28;20197;-78
2021/03/20 06:38:59;;;;;;;15.33;10.40;;;1.10;99.90;;;;;;5067032;28;20646;-78
2021/03/20 06:41:33;;;;;;;14.23;9.87;;;1.10;99.90;;;;;;5066593;28;20201;-81
2021/03/20 06:44:05;;;;;;;12.70;9.63;;;1.20;99.90;;;;;;5066808;28;20239;-79
2021/03/20 06:46:34;;;;;;;15.07;10.33;;;1.30;99.90;;;;;;5071892;22;20233;-78
2021/03/20 06:49:18;;;;;;;13.37;9.93;;;1.30;99.90;;;;;;5066838;28;20201;-81
2021/03/20 06:51:44;;;;;;;15.13;10.90;;;1.40;99.90;;;;;;5049684;28;20271;-78
2021/03/20 06:54:14;;;;;;;13.60;10.33;;;1.50;99.90;;;;;;5045604;28;20198;-80
2021/03/20 06:56:40;;;;;;;16.77;12.07;;;1.50;99.90;;;;;;5044063;28;20232;-81
2021/03/20 06:59:11;;;;;;;13.93;11.20;;;1.60;99.90;;;;;;5044220;28;20263;-79
2021/03/20 07:01:42;;;;;;;16.30;11.80;;;1.70;99.90;;;;;;5044766;28;20615;-80
2021/03/20 07:04:23;;;;;;;14.40;11.40;;;1.70;99.90;;;;;;5049095;28;20225;-82
2021/03/20 07:07:07;;;;;;;17.10;12.23;;;1.80;99.90;;;;;;5053810;28;20531;-81
2021/03/20 07:09:34;;;;;;;13.47;10.80;;;1.80;99.90;;;;;;5068778;28;20816;-81
2021/03/20 07:12:08;;;;;;;12.13;10.47;;;1.80;99.90;;;;;;5069342;28;20764;-82
2021/03/20 07:14:40;;;;;;;16.40;11.80;;;1.80;99.90;;;;;;5055839;28;20201;-82
2021/03/20 07:17:10;;;;;;;13.90;10.33;;;1.80;99.90;;;;;;5049017;28;20728;-82
2021/03/20 07:22:08;;;;;;;13.67;11.63;;;1.90;99.90;;;;;;5072641;22;20318;-80
2021/03/20 07:24:38;;;;;;;16.73;12.87;;;1.90;99.90;;;;;;5067595;28;20524;-81
2021/03/20 07:27:18;;;;;;;16.20;12.60;;;1.90;99.90;;;;;;5055690;28;20205;-81
2021/03/20 07:29:48;;;;;;;17.13;11.80;;;2.00;99.90;;;;;;5048766;28;20630;-81
2021/03/20 07:32:17;;;;;;;14.67;11.57;;;2.10;99.90;;;;;;5048503;28;20245;-82
2021/03/20 07:34:45;;;;;;;18.73;11.80;;;2.10;99.90;;;;;;5048084;28;20266;-81
2021/03/20 07:37:23;;;;;;;15.90;12.23;;;2.30;99.90;;;;;;5049191;28;20213;-82
2021/03/20 07:39:53;;;;;;;14.20;11.10;;;2.50;99.90;;;;;;5061779;28;20582;-81
2021/03/20 07:42:33;;;;;;;16.13;11.37;;;2.70;99.90;;;;;;5066876;28;20292;-82
2021/03/20 07:45:04;;;;;;;15.70;11.53;;;2.80;99.90;;;;;;5048476;28;20226;-81
2021/03/20 07:47:33;;;;;;;13.23;10.73;;;3.00;99.90;;;;;;5047912;28;20205;-82
2021/03/20 07:50:26;;;;;;;14.70;10.77;;;3.20;99.90;;;;;;5050049;28;20198;-81
2021/03/20 07:53:06;;;;;;;14.77;9.60;;;3.30;99.90;;;;;;5048798;28;20191;-82
2021/03/20 07:55:51;;;;;;;14.67;9.57;;;3.40;99.90;;;;;;5048713;28;20232;-81
2021/03/20 07:58:21;;;;;;;15.63;9.97;;;3.50;99.90;;;;;;5068961;28;20197;-81
2021/03/20 08:00:55;;;;;;;12.80;9.00;;;3.50;99.90;;;;;;5047031;28;20233;-80
2021/03/20 08:03:25;;;;;;;12.90;9.40;;;3.60;99.90;;;;;;5048174;28;20209;-80
2021/03/20 08:05:51;;;;;;;14.43;9.53;;;3.70;99.90;;;;;;5061828;28;20209;-80
2021/03/20 08:08:21;;;;;;;13.23;9.13;;;3.70;99.90;;;;;;5064602;28;20217;-79
2021/03/20 08:10:49;;;;;;;12.60;9.17;;;3.80;99.90;;;;;;5047606;28;20232;-80
2021/03/20 08:13:28;;;;;;;16.07;11.07;;;3.80;99.90;;;;;;5047051;28;20217;-80
2021/03/20 08:15:57;;;;;;;12.87;9.13;;;3.90;99.90;;;;;;5068736;22;20223;-77
2021/03/20 08:18:26;;;;;;;10.90;8.63;;;3.90;99.90;;;;;;5063855;28;20269;-79
2021/03/20 08:21:22;;;;;;;12.30;9.57;;;4.00;99.90;;;;;;5063452;28;20287;-78
2021/03/20 08:24:11;;;;;;;11.27;8.70;;;4.00;99.90;;;;;;5064238;28;20219;-80
2021/03/20 08:30:17;;;;;;;14.17;9.33;;;4.20;99.90;;;;;;4920907;28;20329;-78
2021/03/20 08:33:08;;;;;;;12.23;9.17;;;4.30;99.90;;;;;;5025470;28;20209;-78
2021/03/20 08:35:43;;;;;;;18.20;9.80;;;4.40;99.90;;;;;;5042869;28;20276;-79
2021/03/20 08:38:27;;;;;;;10.93;9.37;;;4.50;99.90;;;;;;5042786;28;20212;-78
2021/03/20 08:40:58;;;;;;;12.27;8.40;;;4.60;99.90;;;;;;5043892;28;20198;-79
2021/03/20 08:44:01;;;;;;;11.40;8.07;;;4.80;99.90;;;;;;5043618;28;20222;-80
2021/03/20 08:46:59;;;;;;;13.03;8.30;;;5.00;99.90;;;;;;4965866;28;20946;-78
2021/03/20 08:49:36;;;;;;;8.37;6.47;;;5.10;99.90;;;;;;5063583;28;20209;-80
2021/03/20 08:52:08;;;;;;;10.57;7.97;;;5.30;99.90;;;;;;5065251;28;20870;-80
2021/03/20 08:54:55;;;;;;;10.27;6.47;;;5.40;99.90;;;;;;5064762;28;20216;-80
2021/03/20 08:57:35;;;;;;;11.13;6.83;;;5.50;99.90;;;;;;5065023;28;20185;-79
2021/03/20 09:00:10;;;;;;;10.97;7.30;;;5.60;99.90;;;;;;5064333;28;20205;-80
2021/03/20 09:02:39;;;;;;;9.63;7.00;;;5.70;99.90;;;;;;5055442;28;20201;-80
2021/03/20 09:05:22;;;;;;;9.40;7.47;;;5.90;99.90;;;;;;5043575;28;20249;-79
2021/03/20 09:07:53;;;;;;;8.40;6.30;;;6.10;99.90;;;;;;5045208;28;20213;-79
2021/03/20 09:10:24;;;;;;;7.17;5.77;;;6.30;99.90;;;;;;5044600;28;20286;-80
2021/03/20 09:13:01;;;;;;;6.70;5.63;;;6.50;99.90;;;;;;5044467;28;20222;-80
2021/03/20 09:15:30;;;;;;;11.07;6.40;;;6.50;99.90;;;;;;5043106;28;20213;-79
2021/03/20 09:18:00;;;;;;;9.27;5.63;;;6.50;99.90;;;;;;5043748;28;20238;-79
2021/03/20 09:20:38;;;;;;;7.53;5.93;;;6.50;99.90;;;;;;5062496;28;20216;-80
2021/03/20 09:23:05;;;;;;;8.37;5.90;;;6.50;99.90;;;;;;5064333;28;20193;-79
2021/03/20 09:25:43;;;;;;;8.97;6.07;;;6.50;99.90;;;;;;5063445;28;20204;-81
2021/03/20 09:28:28;;;;;;;9.40;6.07;;;6.60;99.90;;;;;;5046420;28;20210;-80
2021/03/20 09:30:58;;;;;;;7.63;5.53;;;6.80;99.90;;;;;;5047229;28;20209;-80
2021/03/20 09:33:39;;;;;;;7.17;5.90;;;7.00;99.90;;;;;;5063015;28;20874;-80
2021/03/20 09:36:10;;;;;;;7.57;6.10;;;7.10;99.90;;;;;;5062449;28;20204;-79
2021/03/20 09:38:49;;;;;;;10.43;6.73;;;7.10;99.90;;;;;;5062576;28;20205;-79
2021/03/20 09:41:36;;;;;;;7.57;6.80;;;7.20;99.90;;;;;;5053924;28;20288;-79
2021/03/20 09:44:25;;;;;;;9.47;6.50;;;7.40;99.90;;;;;;5046442;28;20287;-78
2021/03/20 09:46:57;;;;;;;8.60;6.43;;;7.50;99.90;;;;;;5047272;28;20201;-79
2021/03/20 09:49:57;;;;;;;7.63;6.30;;;7.60;99.90;;;;;;5048724;28;20312;-79
2021/03/20 09:52:50;;;;;;;9.80;6.47;;;7.70;99.90;;;;;;5065471;28;20201;-78
2021/03/20 09:55:40;;;;;;;9.47;6.50;;;7.90;99.90;;;;;;5067481;28;20200;-81
2021/03/20 09:58:08;;;;;;;10.50;6.93;;;8.10;99.90;;;;;;5057733;28;20210;-81
2021/03/20 10:01:04;;;;;;;9.23;6.33;;;8.20;99.90;;;;;;5048193;28;20240;-81
2021/03/20 10:04:24;;;;;;;11.43;7.13;;;8.30;99.90;;;;;;5048059;28;20225;-79
2021/03/20 10:07:15;;;;;;;12.10;6.37;;;8.30;99.90;;;;;;5049540;28;20206;-82
2021/03/20 10:09:55;;;;;;;9.50;6.30;;;8.40;99.90;;;;;;5047117;28;20275;-81
2021/03/20 10:12:25;;;;;;;10.20;6.47;;;8.30;99.90;;;;;;5047288;28;20221;-79
2021/03/20 10:15:30;;;;;;;11.70;6.63;;;8.30;99.90;;;;;;5048548;28;20317;-81
2021/03/20 10:18:21;;;;;;;7.53;6.13;;;8.30;99.90;;;;;;5033932;28;20323;-81
2021/03/20 10:21:10;;;;;;;8.00;4.97;;;8.40;99.90;;;;;;5037895;28;20515;-80
2021/03/20 10:23:42;;;;;;;10.00;5.93;;;8.60;99.90;;;;;;5043857;28;20332;-81
2021/03/20 10:26:37;;;;;;;5.33;4.63;;;8.70;99.90;;;;;;5053539;28;20228;-81
2021/03/20 10:29:06;;;;;;;6.50;5.30;;;8.90;99.90;;;;;;5069429;28;20570;-80
2021/03/20 10:31:40;;;;;;;8.30;4.90;;;9.10;99.90;;;;;;5067622;28;20770;-82
2021/03/20 10:34:10;;;;;;;6.00;4.90;;;9.30;99.90;;;;;;5070277;28;20221;-81
2021/03/20 10:36:39;;;;;;;7.97;4.90;;;9.40;99.90;;;;;;5057074;28;20209;-78
2021/03/20 10:39:28;;;;;;;5.27;4.03;;;9.60;99.90;;;;;;5045705;28;20244;-79
2021/03/20 10:42:00;;;;;;;9.37;5.07;;;9.60;99.90;;;;;;5045818;28;20217;-79
2021/03/20 10:44:31;;;;;;;6.33;3.77;;;9.60;99.90;;;;;;5044368;28;20649;-79
2021/03/20 10:47:04;;;;;;;6.40;4.43;;;9.50;99.90;;;;;;5045712;28;20499;-78
2021/03/20 10:49:36;;;;;;;9.63;5.47;;;9.40;99.90;;;;;;5045144;28;20206;-78
2021/03/20 10:52:03;;;;;;;8.73;5.43;;;9.30;99.90;;;;;;5063034;28;20206;-81
2021/03/20 10:54:33;;;;;;;10.17;5.73;;;9.30;99.90;;;;;;5059527;28;20210;-79
2021/03/20 10:57:05;;;;;;;5.93;4.73;;;9.30;99.90;;;;;;5065733;28;20205;-78
2021/03/20 10:59:35;;;;;;;7.60;4.17;;;9.30;99.90;;;;;;5057451;28;20218;-79
2021/03/20 11:02:24;;;;;;;5.00;3.20;;;9.30;99.90;;;;;;5045415;28;20201;-79
2021/03/20 11:04:53;;;;;;;10.80;4.43;;;9.30;99.90;;;;;;5038134;28;20696;-79
2021/03/20 11:07:23;;;;;;;3.93;3.43;;;9.30;99.90;;;;;;5044731;28;20614;-78
2021/03/20 11:09:50;;;;;;;6.33;3.70;;;9.20;99.90;;;;;;5045508;28;20638;-78
2021/03/20 11:12:23;;;;;;;5.93;3.90;;;9.10;99.90;;;;;;5055541;28;20240;-78
2021/03/20 11:14:52;;;;;;;4.93;3.43;;;9.10;99.90;;;;;;5064499;28;20201;-78
2021/03/20 11:17:21;;;;;;;6.00;3.87;;;9.10;99.90;;;;;;5065068;28;20240;-80
2021/03/20 11:19:49;;;;;;;6.43;3.70;;;9.10;99.90;;;;;;5063990;28;20205;-78
2021/03/20 11:22:18;;;;;;;7.53;4.50;;;9.20;99.90;;;;;;5065244;28;20198;-77
2021/03/20 11:24:53;;;;;;;9.57;4.13;;;9.30;99.90;;;;;;5063604;28;20221;-80
2021/03/20 11:27:23;;;;;;;6.43;4.00;;;9.40;99.90;;;;;;5054595;28;20216;-78
2021/03/20 11:29:52;;;;;;;6.60;4.00;;;9.40;99.90;;;;;;5044233;28;20256;-77
2021/03/20 11:32:28;;;;;;;5.57;3.10;;;9.30;99.90;;;;;;5056299;28;20213;-78
2021/03/20 11:35:06;;;;;;;3.33;2.60;;;9.40;99.90;;;;;;5064642;28;20194;-79
2021/03/20 11:37:33;;;;;;;3.70;1.90;;;9.40;99.90;;;;;;5064143;28;20205;-79
2021/03/20 11:40:02;;;;;;;4.27;1.13;;;9.50;99.90;;;;;;5064253;28;20252;-79
2021/03/20 11:42:37;;;;;;;2.60;1.00;;;9.50;99.90;;;;;;5046266;28;20209;-80
2021/03/20 11:45:08;;;;;;;2.73;1.00;;;9.50;99.90;;;;;;5044393;28;20312;-80
2021/03/20 11:47:37;;;;;;;2.13;1.10;;;9.50;99.90;;;;;;5043056;28;20423;-81
2021/03/20 11:50:13;;;;;;;2.33;0.90;;;9.50;99.90;;;;;;5042474;28;20202;-78
2021/03/20 11:52:48;;;;;;;2.67;1.17;;;9.40;99.90;;;;;;5044038;28;20201;-80
2021/03/20 11:55:19;;;;;;;2.67;1.20;;;9.30;99.90;;;;;;5043722;28;20201;-80
2021/03/20 11:57:49;;;;;;;2.37;1.20;;;9.30;99.90;;;;;;5044921;28;20202;-81
2021/03/20 12:00:42;;;;;;;1.60;1.00;;;9.30;99.90;;;;;;5045247;28;20214;-80
2021/03/20 12:03:25;;;;;;;4.33;1.33;;;9.20;99.90;;;;;;5044085;28;20430;-81
2021/03/20 12:05:53;;;;;;;2.30;1.00;;;9.20;99.90;;;;;;5043066;28;20633;-81
2021/03/20 12:08:38;;;;;;;6.00;1.23;;;9.30;99.90;;;;;;5043102;28;20213;-80
2021/03/20 12:11:06;;;;;;;1.50;0.80;;;9.30;99.90;;;;;;5045130;28;20201;-81
2021/03/20 12:13:53;;;;;;;1.43;0.90;;;9.20;99.90;;;;;;5044890;28;20237;-79
2021/03/20 12:16:37;;;;;;;2.73;0.93;;;9.20;99.90;;;;;;5043783;28;20771;-80
2021/03/20 12:19:16;;;;;;;2.53;1.10;;;9.20;99.90;;;;;;5044238;28;20507;-81
2021/03/20 12:21:59;;;;;;;2.53;1.20;;;9.10;99.90;;;;;;5043832;28;20209;-79
2021/03/20 12:24:29;;;;;;;2.27;0.90;;;9.10;99.90;;;;;;5042618;28;20642;-80
2021/03/20 12:26:56;;;;;;;3.30;1.17;;;9.00;99.90;;;;;;5043293;28;20259;-80
2021/03/20 12:29:37;;;;;;;2.40;1.10;;;9.00;99.90;;;;;;5043062;28;20189;-80
2021/03/20 12:32:24;;;;;;;4.93;1.30;;;9.10;99.90;;;;;;5044452;28;20502;-79
2021/03/20 12:34:51;;;;;;;2.60;1.03;;;9.10;99.90;;;;;;5043829;28;20655;-81
2021/03/20 12:37:21;;;;;;;2.70;1.23;;;9.10;99.90;;;;;;5043908;28;20213;-81
2021/03/20 12:39:49;;;;;;;1.63;1.10;;;9.10;99.90;;;;;;5043484;28;20961;-79
2021/03/20 12:42:15;;;;;;;4.27;1.33;;;9.00;99.90;;;;;;5042840;28;20237;-80
2021/03/20 12:44:47;;;;;;;1.33;1.00;;;9.00;99.90;;;;;;5042212;28;20221;-80
2021/03/20 12:47:18;;;;;;;1.80;1.20;;;9.00;99.90;;;;;;5042345;28;20206;-81
2021/03/20 12:49:45;;;;;;;2.67;1.17;;;9.00;99.90;;;;;;5042752;28;20198;-79
2021/03/20 12:52:16;;;;;;;1.87;1.37;;;9.00;99.90;;;;;;5049704;28;20780;-80
2021/03/20 12:54:46;;;;;;;5.83;1.63;;;8.90;99.90;;;;;;5062202;28;20193;-80
2021/03/20 12:57:19;;;;;;;2.30;1.30;;;8.80;99.90;;;;;;5062218;28;20198;-81
2021/03/20 12:59:47;;;;;;;8.07;1.67;;;8.70;99.90;;;;;;5062564;28;20813;-79
2021/03/20 13:02:13;;;;;;;2.77;1.53;;;8.60;99.90;;;;;;5062203;28;20201;-79
2021/03/20 13:04:40;;;;;;;3.37;1.27;;;8.60;99.90;;;;;;5043977;28;20236;-80
2021/03/20 13:07:08;;;;;;;2.17;1.20;;;8.60;99.90;;;;;;5049839;28;20204;-81
2021/03/20 13:09:35;;;;;;;5.03;1.43;;;8.70;99.90;;;;;;5065627;28;20216;-83
2021/03/20 13:12:01;;;;;;;3.23;1.30;;;8.60;99.90;;;;;;5052735;28;20237;-85
2021/03/20 13:14:28;;;;;;;2.23;1.33;;;8.60;99.90;;;;;;5047203;28;20194;-85
2021/03/20 13:16:57;;;;;;;4.63;2.13;;;8.60;99.90;;;;;;5047088;28;20234;-86
2021/03/20 13:19:23;;;;;;;2.07;1.33;;;8.70;99.90;;;;;;5054734;28;20258;-85
2021/03/20 13:21:49;;;;;;;4.30;1.53;;;8.60;99.90;;;;;;5064558;28;20220;-82
2021/03/20 13:24:16;;;;;;;6.93;1.47;;;8.70;99.90;;;;;;5063057;28;20235;-82
2021/03/20 13:26:42;;;;;;;3.77;1.50;;;8.70;99.90;;;;;;5066439;28;20498;-81
2021/03/20 13:29:08;;;;;;;2.23;1.23;;;8.80;99.90;;;;;;5066621;28;20220;-81
2021/03/20 13:31:35;;;;;;;5.70;1.30;;;8.70;99.90;;;;;;5066036;28;20258;-83
2021/03/20 13:34:02;;;;;;;3.83;1.43;;;8.70;99.90;;;;;;5066484;28;20238;-83